sensor_id;sensor_type;location;lat;lon;timestamp;P1;durP1;ratioP1;P2;durP2;ratioP2
20095;SDS011;10207;50.942;6.900;2023-04-25T00:00:47;15.00;;;4.40;;
20095;SDS011;10207;50.942;6.900;2023-04-25T00:03:12;12.18;;;4.22;;
20095;SDS011;10207;50.942;6.900;2023-04-25T00:05:39;10.88;;;4.20;;
20095;SDS011;10207;50.942;6.900;2023-04-25T00:08:05;12.40;;;4.57;;
20095;SDS011;10207;50.942;6.900;2023-04-25T00:10:31;8.52;;;3.92;;
20095;SDS011;10207;50.942;6.900;2023-04-25T00:12:57;20.00;;;6.80;;
20095;SDS011;10207;50.942;6.900;2023-04-25T00:15:23;17.63;;;5.65;;
20095;SDS011;10207;50.942;6.900;2023-04-25T00:17:50;13.38;;;5.88;;
20095;SDS011;10207;50.942;6.900;2023-04-25T00:20:18;12.95;;;4.70;;
20095;SDS011;10207;50.942;6.900;2023-04-25T00:22:44;19.52;;;5.75;;
20095;SDS011;10207;50.942;6.900;2023-04-25T00:25:11;15.48;;;4.68;;
20095;SDS011;10207;50.942;6.900;2023-04-25T00:27:36;15.15;;;5.95;;
20095;SDS011;10207;50.942;6.900;2023-04-25T00:30:05;14.27;;;5.68;;
20095;SDS011;10207;50.942;6.900;2023-04-25T00:32:31;10.40;;;4.97;;
20095;SDS011;10207;50.942;6.900;2023-04-25T00:34:57;20.85;;;5.43;;
20095;SDS011;10207;50.942;6.900;2023-04-25T00:37:24;20.17;;;6.63;;
20095;SDS011;10207;50.942;6.900;2023-04-25T00:39:50;15.65;;;5.50;;
20095;SDS011;10207;50.942;6.900;2023-04-25T00:42:16;13.02;;;5.50;;
20095;SDS011;10207;50.942;6.900;2023-04-25T00:44:42;21.58;;;5.70;;
20095;SDS011;10207;50.942;6.900;2023-04-25T00:47:08;15.55;;;6.88;;
20095;SDS011;10207;50.942;6.900;2023-04-25T00:49:36;17.65;;;6.03;;
20095;SDS011;10207;50.942;6.900;2023-04-25T00:52:02;21.35;;;5.85;;
20095;SDS011;10207;50.942;6.900;2023-04-25T00:54:28;13.40;;;5.00;;
20095;SDS011;10207;50.942;6.900;2023-04-25T00:56:55;14.90;;;5.10;;
20095;SDS011;10207;50.942;6.900;2023-04-25T00:59:21;18.48;;;5.72;;
20095;SDS011;10207;50.942;6.900;2023-04-25T01:01:47;21.42;;;6.28;;
20095;SDS011;10207;50.942;6.900;2023-04-25T01:04:13;17.17;;;6.75;;
20095;SDS011;10207;50.942;6.900;2023-04-25T01:06:40;11.85;;;4.95;;
20095;SDS011;10207;50.942;6.900;2023-04-25T01:09:06;14.32;;;5.90;;
20095;SDS011;10207;50.942;6.900;2023-04-25T01:11:32;18.50;;;5.30;;
20095;SDS011;10207;50.942;6.900;2023-04-25T01:13:58;19.42;;;6.55;;
20095;SDS011;10207;50.942;6.900;2023-04-25T01:16:24;17.88;;;5.25;;
20095;SDS011;10207;50.942;6.900;2023-04-25T01:18:50;18.17;;;5.63;;
20095;SDS011;10207;50.942;6.900;2023-04-25T01:21:17;17.77;;;5.68;;
20095;SDS011;10207;50.942;6.900;2023-04-25T01:23:43;16.77;;;5.38;;
20095;SDS011;10207;50.942;6.900;2023-04-25T01:26:10;23.13;;;5.60;;
20095;SDS011;10207;50.942;6.900;2023-04-25T01:28:37;29.15;;;6.13;;
20095;SDS011;10207;50.942;6.900;2023-04-25T01:31:03;16.08;;;6.10;;
20095;SDS011;10207;50.942;6.900;2023-04-25T01:33:29;19.90;;;5.67;;
20095;SDS011;10207;50.942;6.900;2023-04-25T01:35:55;15.55;;;5.63;;
20095;SDS011;10207;50.942;6.900;2023-04-25T01:38:21;22.83;;;5.93;;
20095;SDS011;10207;50.942;6.900;2023-04-25T01:40:47;15.47;;;5.40;;
20095;SDS011;10207;50.942;6.900;2023-04-25T01:43:14;19.00;;;6.47;;
20095;SDS011;10207;50.942;6.900;2023-04-25T01:45:40;16.02;;;6.13;;
20095;SDS011;10207;50.942;6.900;2023-04-25T01:48:08;19.02;;;5.18;;
20095;SDS011;10207;50.942;6.900;2023-04-25T01:50:35;18.95;;;6.78;;
20095;SDS011;10207;50.942;6.900;2023-04-25T01:53:02;16.40;;;5.57;;
20095;SDS011;10207;50.942;6.900;2023-04-25T01:55:28;20.52;;;6.03;;
20095;SDS011;10207;50.942;6.900;2023-04-25T01:58:14;13.63;;;4.93;;
20095;SDS011;10207;50.942;6.900;2023-04-25T02:00:59;20.02;;;6.20;;
20095;SDS011;10207;50.942;6.900;2023-04-25T02:03:31;10.73;;;4.93;;
20095;SDS011;10207;50.942;6.900;2023-04-25T02:05:58;16.17;;;5.90;;
20095;SDS011;10207;50.942;6.900;2023-04-25T02:08:25;18.30;;;5.05;;
20095;SDS011;10207;50.942;6.900;2023-04-25T02:10:54;20.00;;;4.85;;
20095;SDS011;10207;50.942;6.900;2023-04-25T02:13:20;18.23;;;5.25;;
20095;SDS011;10207;50.942;6.900;2023-04-25T02:15:57;14.77;;;5.10;;
20095;SDS011;10207;50.942;6.900;2023-04-25T02:18:23;13.38;;;4.80;;
20095;SDS011;10207;50.942;6.900;2023-04-25T02:20:49;11.27;;;4.05;;
20095;SDS011;10207;50.942;6.900;2023-04-25T02:23:15;16.45;;;5.13;;
20095;SDS011;10207;50.942;6.900;2023-04-25T02:25:41;17.67;;;5.38;;
20095;SDS011;10207;50.942;6.900;2023-04-25T02:28:07;9.60;;;3.47;;
20095;SDS011;10207;50.942;6.900;2023-04-25T02:30:35;9.15;;;2.70;;
20095;SDS011;10207;50.942;6.900;2023-04-25T02:33:04;15.70;;;5.45;;
20095;SDS011;10207;50.942;6.900;2023-04-25T02:35:30;11.30;;;4.50;;
20095;SDS011;10207;50.942;6.900;2023-04-25T02:37:56;10.52;;;4.50;;
20095;SDS011;10207;50.942;6.900;2023-04-25T02:40:22;10.52;;;4.47;;
20095;SDS011;10207;50.942;6.900;2023-04-25T02:42:48;10.10;;;4.18;;
20095;SDS011;10207;50.942;6.900;2023-04-25T02:45:14;11.77;;;4.70;;
20095;SDS011;10207;50.942;6.900;2023-04-25T02:47:40;16.92;;;4.22;;
20095;SDS011;10207;50.942;6.900;2023-04-25T02:50:06;16.35;;;4.55;;
20095;SDS011;10207;50.942;6.900;2023-04-25T02:52:32;10.35;;;4.13;;
20095;SDS011;10207;50.942;6.900;2023-04-25T02:55:07;13.30;;;3.97;;
20095;SDS011;10207;50.942;6.900;2023-04-25T02:57:33;13.65;;;3.60;;
20095;SDS011;10207;50.942;6.900;2023-04-25T03:00:00;9.68;;;4.15;;
20095;SDS011;10207;50.942;6.900;2023-04-25T03:02:26;13.73;;;4.80;;
20095;SDS011;10207;50.942;6.900;2023-04-25T03:04:51;11.98;;;3.85;;
20095;SDS011;10207;50.942;6.900;2023-04-25T03:07:18;16.60;;;4.60;;
20095;SDS011;10207;50.942;6.900;2023-04-25T03:09:44;8.65;;;4.05;;
20095;SDS011;10207;50.942;6.900;2023-04-25T03:12:10;13.07;;;4.20;;
20095;SDS011;10207;50.942;6.900;2023-04-25T03:14:36;10.40;;;4.13;;
20095;SDS011;10207;50.942;6.900;2023-04-25T03:17:02;11.10;;;4.32;;
20095;SDS011;10207;50.942;6.900;2023-04-25T03:19:28;8.23;;;4.40;;
20095;SDS011;10207;50.942;6.900;2023-04-25T03:21:54;11.38;;;4.65;;
20095;SDS011;10207;50.942;6.900;2023-04-25T03:24:20;17.77;;;5.25;;
20095;SDS011;10207;50.942;6.900;2023-04-25T03:26:46;14.98;;;5.00;;
20095;SDS011;10207;50.942;6.900;2023-04-25T03:29:12;15.57;;;5.30;;
20095;SDS011;10207;50.942;6.900;2023-04-25T03:31:39;12.15;;;3.97;;
20095;SDS011;10207;50.942;6.900;2023-04-25T03:34:05;15.90;;;5.40;;
20095;SDS011;10207;50.942;6.900;2023-04-25T03:36:31;13.82;;;4.97;;
20095;SDS011;10207;50.942;6.900;2023-04-25T03:38:58;12.95;;;4.43;;
20095;SDS011;10207;50.942;6.900;2023-04-25T03:41:24;16.58;;;4.90;;
20095;SDS011;10207;50.942;6.900;2023-04-25T03:43:54;18.83;;;5.60;;
20095;SDS011;10207;50.942;6.900;2023-04-25T03:46:20;15.68;;;5.55;;
20095;SDS011;10207;50.942;6.900;2023-04-25T03:48:47;14.13;;;5.07;;
20095;SDS011;10207;50.942;6.900;2023-04-25T03:51:19;13.68;;;4.88;;
20095;SDS011;10207;50.942;6.900;2023-04-25T03:53:45;14.20;;;5.68;;
20095;SDS011;10207;50.942;6.900;2023-04-25T03:56:14;16.98;;;5.47;;
20095;SDS011;10207;50.942;6.900;2023-04-25T03:58:41;17.45;;;5.63;;
20095;SDS011;10207;50.942;6.900;2023-04-25T04:01:07;17.60;;;5.88;;
20095;SDS011;10207;50.942;6.900;2023-04-25T04:03:36;15.20;;;4.30;;
20095;SDS011;10207;50.942;6.900;2023-04-25T04:06:03;20.00;;;4.68;;
20095;SDS011;10207;50.942;6.900;2023-04-25T04:08:31;10.23;;;4.40;;
20095;SDS011;10207;50.942;6.900;2023-04-25T04:10:57;14.20;;;4.50;;
20095;SDS011;10207;50.942;6.900;2023-04-25T04:13:25;14.68;;;4.57;;
20095;SDS011;10207;50.942;6.900;2023-04-25T04:15:52;10.90;;;4.07;;
20095;SDS011;10207;50.942;6.900;2023-04-25T04:18:18;13.57;;;4.28;;
20095;SDS011;10207;50.942;6.900;2023-04-25T04:20:44;12.15;;;4.65;;
20095;SDS011;10207;50.942;6.900;2023-04-25T04:23:11;12.13;;;4.72;;
20095;SDS011;10207;50.942;6.900;2023-04-25T04:25:37;13.10;;;4.10;;
20095;SDS011;10207;50.942;6.900;2023-04-25T04:28:21;16.20;;;4.50;;
20095;SDS011;10207;50.942;6.900;2023-04-25T04:31:10;9.82;;;4.25;;
20095;SDS011;10207;50.942;6.900;2023-04-25T04:33:37;14.07;;;4.55;;
20095;SDS011;10207;50.942;6.900;2023-04-25T04:36:04;16.25;;;4.97;;
20095;SDS011;10207;50.942;6.900;2023-04-25T04:38:33;14.63;;;5.63;;
20095;SDS011;10207;50.942;6.900;2023-04-25T04:41:02;18.85;;;4.93;;
20095;SDS011;10207;50.942;6.900;2023-04-25T04:43:47;14.65;;;4.15;;
20095;SDS011;10207;50.942;6.900;2023-04-25T04:46:43;13.73;;;4.55;;
20095;SDS011;10207;50.942;6.900;2023-04-25T04:49:27;14.18;;;4.80;;
20095;SDS011;10207;50.942;6.900;2023-04-25T04:52:17;20.30;;;4.68;;
20095;SDS011;10207;50.942;6.900;2023-04-25T04:55:00;11.80;;;4.60;;
20095;SDS011;10207;50.942;6.900;2023-04-25T04:57:53;14.18;;;5.13;;
20095;SDS011;10207;50.942;6.900;2023-04-25T05:00:37;13.82;;;4.53;;
20095;SDS011;10207;50.942;6.900;2023-04-25T05:03:32;16.02;;;5.13;;
20095;SDS011;10207;50.942;6.900;2023-04-25T05:06:14;15.52;;;4.75;;
20095;SDS011;10207;50.942;6.900;2023-04-25T05:09:12;11.98;;;3.90;;
20095;SDS011;10207;50.942;6.900;2023-04-25T05:11:58;15.77;;;4.82;;
20095;SDS011;10207;50.942;6.900;2023-04-25T05:14:48;21.77;;;4.78;;
20095;SDS011;10207;50.942;6.900;2023-04-25T05:17:32;15.52;;;5.05;;
20095;SDS011;10207;50.942;6.900;2023-04-25T05:20:06;16.25;;;5.28;;
20095;SDS011;10207;50.942;6.900;2023-04-25T05:22:53;15.98;;;4.25;;
20095;SDS011;10207;50.942;6.900;2023-04-25T05:25:30;23.08;;;5.20;;
20095;SDS011;10207;50.942;6.900;2023-04-25T05:28:02;19.73;;;5.13;;
20095;SDS011;10207;50.942;6.900;2023-04-25T05:30:47;11.57;;;4.50;;
20095;SDS011;10207;50.942;6.900;2023-04-25T05:33:16;21.65;;;4.88;;
20095;SDS011;10207;50.942;6.900;2023-04-25T05:35:43;15.95;;;5.10;;
20095;SDS011;10207;50.942;6.900;2023-04-25T05:38:10;14.82;;;4.80;;
20095;SDS011;10207;50.942;6.900;2023-04-25T05:40:59;12.73;;;4.30;;
20095;SDS011;10207;50.942;6.900;2023-04-25T05:43:46;14.63;;;4.72;;
20095;SDS011;10207;50.942;6.900;2023-04-25T05:46:35;16.00;;;4.88;;
20095;SDS011;10207;50.942;6.900;2023-04-25T05:49:21;12.90;;;5.03;;
20095;SDS011;10207;50.942;6.900;2023-04-25T05:51:56;14.45;;;3.90;;
20095;SDS011;10207;50.942;6.900;2023-04-25T05:54:41;18.80;;;4.43;;
20095;SDS011;10207;50.942;6.900;2023-04-25T05:57:07;19.30;;;5.40;;
20095;SDS011;10207;50.942;6.900;2023-04-25T05:59:33;11.95;;;4.18;;
20095;SDS011;10207;50.942;6.900;2023-04-25T06:02:00;15.40;;;4.60;;
20095;SDS011;10207;50.942;6.900;2023-04-25T06:04:27;13.40;;;4.35;;
20095;SDS011;10207;50.942;6.900;2023-04-25T06:06:53;11.98;;;4.68;;
20095;SDS011;10207;50.942;6.900;2023-04-25T06:09:21;15.15;;;4.90;;
20095;SDS011;10207;50.942;6.900;2023-04-25T06:11:47;17.65;;;4.20;;
20095;SDS011;10207;50.942;6.900;2023-04-25T06:14:13;16.48;;;4.53;;
20095;SDS011;10207;50.942;6.900;2023-04-25T06:16:45;16.67;;;3.92;;
20095;SDS011;10207;50.942;6.900;2023-04-25T06:19:11;12.02;;;5.15;;
20095;SDS011;10207;50.942;6.900;2023-04-25T06:21:37;17.50;;;4.03;;
20095;SDS011;10207;50.942;6.900;2023-04-25T06:24:03;10.85;;;3.80;;
20095;SDS011;10207;50.942;6.900;2023-04-25T06:26:29;15.10;;;3.80;;
20095;SDS011;10207;50.942;6.900;2023-04-25T06:28:54;16.38;;;4.05;;
20095;SDS011;10207;50.942;6.900;2023-04-25T06:31:21;14.50;;;4.53;;
20095;SDS011;10207;50.942;6.900;2023-04-25T06:33:48;9.90;;;3.33;;
20095;SDS011;10207;50.942;6.900;2023-04-25T06:36:14;9.63;;;2.78;;
20095;SDS011;10207;50.942;6.900;2023-04-25T06:38:42;19.45;;;3.47;;
20095;SDS011;10207;50.942;6.900;2023-04-25T06:41:08;12.05;;;3.28;;
20095;SDS011;10207;50.942;6.900;2023-04-25T06:43:35;14.57;;;3.55;;
20095;SDS011;10207;50.942;6.900;2023-04-25T06:46:20;11.40;;;2.78;;
20095;SDS011;10207;50.942;6.900;2023-04-25T06:48:48;15.02;;;3.67;;
20095;SDS011;10207;50.942;6.900;2023-04-25T06:51:14;12.55;;;3.00;;
20095;SDS011;10207;50.942;6.900;2023-04-25T06:53:40;13.77;;;3.28;;
20095;SDS011;10207;50.942;6.900;2023-04-25T06:56:09;13.63;;;3.85;;
20095;SDS011;10207;50.942;6.900;2023-04-25T06:58:46;9.55;;;2.67;;
20095;SDS011;10207;50.942;6.900;2023-04-25T07:01:19;6.95;;;2.30;;
20095;SDS011;10207;50.942;6.900;2023-04-25T07:03:46;9.68;;;2.28;;
20095;SDS011;10207;50.942;6.900;2023-04-25T07:06:16;13.65;;;2.38;;
20095;SDS011;10207;50.942;6.900;2023-04-25T07:08:43;11.75;;;2.55;;
20095;SDS011;10207;50.942;6.900;2023-04-25T07:11:09;9.45;;;2.40;;
20095;SDS011;10207;50.942;6.900;2023-04-25T07:13:36;7.68;;;2.13;;
20095;SDS011;10207;50.942;6.900;2023-04-25T07:16:02;12.10;;;2.85;;
20095;SDS011;10207;50.942;6.900;2023-04-25T07:18:30;13.27;;;2.63;;
20095;SDS011;10207;50.942;6.900;2023-04-25T07:20:56;11.02;;;2.45;;
20095;SDS011;10207;50.942;6.900;2023-04-25T07:23:23;8.45;;;2.83;;
20095;SDS011;10207;50.942;6.900;2023-04-25T07:25:49;11.43;;;2.40;;
20095;SDS011;10207;50.942;6.900;2023-04-25T07:28:20;16.77;;;3.53;;
20095;SDS011;10207;50.942;6.900;2023-04-25T07:30:47;19.77;;;3.00;;
20095;SDS011;10207;50.942;6.900;2023-04-25T07:33:13;12.13;;;2.88;;
20095;SDS011;10207;50.942;6.900;2023-04-25T07:35:39;13.32;;;2.65;;
20095;SDS011;10207;50.942;6.900;2023-04-25T07:38:05;6.72;;;2.03;;
20095;SDS011;10207;50.942;6.900;2023-04-25T07:40:32;14.10;;;3.33;;
20095;SDS011;10207;50.942;6.900;2023-04-25T07:43:04;5.78;;;2.08;;
20095;SDS011;10207;50.942;6.900;2023-04-25T07:45:40;4.68;;;2.05;;
20095;SDS011;10207;50.942;6.900;2023-04-25T07:48:07;7.57;;;2.60;;
20095;SDS011;10207;50.942;6.900;2023-04-25T07:50:35;8.98;;;2.75;;
20095;SDS011;10207;50.942;6.900;2023-04-25T07:53:02;12.85;;;2.10;;
20095;SDS011;10207;50.942;6.900;2023-04-25T07:55:33;6.57;;;2.70;;
20095;SDS011;10207;50.942;6.900;2023-04-25T07:58:09;10.82;;;2.78;;
20095;SDS011;10207;50.942;6.900;2023-04-25T08:00:38;10.60;;;2.53;;
20095;SDS011;10207;50.942;6.900;2023-04-25T08:03:33;9.40;;;1.83;;
20095;SDS011;10207;50.942;6.900;2023-04-25T08:06:02;8.65;;;2.30;;
20095;SDS011;10207;50.942;6.900;2023-04-25T08:08:31;10.93;;;2.35;;
20095;SDS011;10207;50.942;6.900;2023-04-25T08:10:58;10.88;;;2.55;;
20095;SDS011;10207;50.942;6.900;2023-04-25T08:13:24;14.15;;;2.63;;
20095;SDS011;10207;50.942;6.900;2023-04-25T08:15:50;6.38;;;1.92;;
20095;SDS011;10207;50.942;6.900;2023-04-25T08:18:16;9.55;;;2.70;;
20095;SDS011;10207;50.942;6.900;2023-04-25T08:20:43;4.10;;;1.30;;
20095;SDS011;10207;50.942;6.900;2023-04-25T08:23:11;7.38;;;1.85;;
20095;SDS011;10207;50.942;6.900;2023-04-25T08:25:50;11.15;;;2.22;;
20095;SDS011;10207;50.942;6.900;2023-04-25T08:28:19;11.30;;;4.35;;
20095;SDS011;10207;50.942;6.900;2023-04-25T08:30:46;9.38;;;2.90;;
20095;SDS011;10207;50.942;6.900;2023-04-25T08:33:13;10.85;;;2.45;;
20095;SDS011;10207;50.942;6.900;2023-04-25T08:36:00;10.55;;;3.17;;
20095;SDS011;10207;50.942;6.900;2023-04-25T08:38:27;17.42;;;3.20;;
20095;SDS011;10207;50.942;6.900;2023-04-25T08:40:53;14.63;;;2.50;;
20095;SDS011;10207;50.942;6.900;2023-04-25T08:43:20;10.63;;;2.20;;
20095;SDS011;10207;50.942;6.900;2023-04-25T08:45:46;10.43;;;2.00;;
20095;SDS011;10207;50.942;6.900;2023-04-25T08:48:21;7.53;;;1.73;;
20095;SDS011;10207;50.942;6.900;2023-04-25T08:50:51;12.57;;;2.63;;
20095;SDS011;10207;50.942;6.900;2023-04-25T08:53:20;10.52;;;2.75;;
20095;SDS011;10207;50.942;6.900;2023-04-25T08:55:47;8.90;;;1.80;;
20095;SDS011;10207;50.942;6.900;2023-04-25T08:58:14;12.30;;;2.22;;
20095;SDS011;10207;50.942;6.900;2023-04-25T09:00:41;6.80;;;2.53;;
20095;SDS011;10207;50.942;6.900;2023-04-25T09:03:07;8.88;;;1.80;;
20095;SDS011;10207;50.942;6.900;2023-04-25T09:05:33;7.38;;;1.58;;
20095;SDS011;10207;50.942;6.900;2023-04-25T09:08:00;4.63;;;1.55;;
20095;SDS011;10207;50.942;6.900;2023-04-25T09:10:27;11.13;;;1.80;;
20095;SDS011;10207;50.942;6.900;2023-04-25T09:13:08;11.90;;;2.25;;
20095;SDS011;10207;50.942;6.900;2023-04-25T09:15:55;9.95;;;2.45;;
20095;SDS011;10207;50.942;6.900;2023-04-25T09:18:34;9.25;;;1.98;;
20095;SDS011;10207;50.942;6.900;2023-04-25T09:21:05;8.93;;;1.92;;
20095;SDS011;10207;50.942;6.900;2023-04-25T09:23:38;9.70;;;1.55;;
20095;SDS011;10207;50.942;6.900;2023-04-25T09:26:06;7.35;;;2.10;;
20095;SDS011;10207;50.942;6.900;2023-04-25T09:28:32;7.25;;;1.50;;
20095;SDS011;10207;50.942;6.900;2023-04-25T09:31:00;8.85;;;1.90;;
20095;SDS011;10207;50.942;6.900;2023-04-25T09:33:33;8.82;;;2.78;;
20095;SDS011;10207;50.942;6.900;2023-04-25T09:36:07;4.85;;;1.33;;
20095;SDS011;10207;50.942;6.900;2023-04-25T09:39:00;7.82;;;1.60;;
20095;SDS011;10207;50.942;6.900;2023-04-25T09:41:37;7.20;;;1.65;;
20095;SDS011;10207;50.942;6.900;2023-04-25T09:44:03;6.80;;;1.73;;
20095;SDS011;10207;50.942;6.900;2023-04-25T09:46:35;4.07;;;1.20;;
20095;SDS011;10207;50.942;6.900;2023-04-25T09:49:08;4.28;;;1.23;;
20095;SDS011;10207;50.942;6.900;2023-04-25T09:51:53;9.68;;;1.85;;
20095;SDS011;10207;50.942;6.900;2023-04-25T09:54:19;8.90;;;2.17;;
20095;SDS011;10207;50.942;6.900;2023-04-25T09:56:51;4.47;;;1.15;;
20095;SDS011;10207;50.942;6.900;2023-04-25T09:59:19;5.35;;;1.50;;
20095;SDS011;10207;50.942;6.900;2023-04-25T10:01:46;10.93;;;2.22;;
20095;SDS011;10207;50.942;6.900;2023-04-25T10:04:22;6.78;;;1.95;;
20095;SDS011;10207;50.942;6.900;2023-04-25T10:06:56;5.20;;;1.50;;
20095;SDS011;10207;50.942;6.900;2023-04-25T10:09:24;8.60;;;2.40;;
20095;SDS011;10207;50.942;6.900;2023-04-25T10:11:51;7.15;;;1.45;;
20095;SDS011;10207;50.942;6.900;2023-04-25T10:14:18;8.23;;;2.08;;
20095;SDS011;10207;50.942;6.900;2023-04-25T10:16:44;4.72;;;1.20;;
20095;SDS011;10207;50.942;6.900;2023-04-25T10:19:10;6.78;;;1.80;;
20095;SDS011;10207;50.942;6.900;2023-04-25T10:21:39;5.78;;;1.42;;
20095;SDS011;10207;50.942;6.900;2023-04-25T10:24:09;8.98;;;2.00;;
20095;SDS011;10207;50.942;6.900;2023-04-25T10:26:35;8.45;;;1.38;;
20095;SDS011;10207;50.942;6.900;2023-04-25T10:29:02;7.88;;;1.70;;
20095;SDS011;10207;50.942;6.900;2023-04-25T10:31:31;5.80;;;1.65;;
20095;SDS011;10207;50.942;6.900;2023-04-25T10:33:57;11.98;;;1.40;;
20095;SDS011;10207;50.942;6.900;2023-04-25T10:36:23;6.28;;;1.88;;
20095;SDS011;10207;50.942;6.900;2023-04-25T10:38:51;7.40;;;1.80;;
20095;SDS011;10207;50.942;6.900;2023-04-25T10:41:17;9.07;;;1.92;;
20095;SDS011;10207;50.942;6.900;2023-04-25T10:43:44;8.02;;;1.75;;
20095;SDS011;10207;50.942;6.900;2023-04-25T10:48:43;6.88;;;1.70;;
20095;SDS011;10207;50.942;6.900;2023-04-25T10:53:46;4.28;;;1.40;;
20095;SDS011;10207;50.942;6.900;2023-04-25T10:58:41;13.82;;;1.75;;
20095;SDS011;10207;50.942;6.900;2023-04-25T11:01:07;4.30;;;1.13;;
20095;SDS011;10207;50.942;6.900;2023-04-25T11:03:37;4.65;;;1.00;;
20095;SDS011;10207;50.942;6.900;2023-04-25T11:06:03;10.73;;;1.98;;
20095;SDS011;10207;50.942;6.900;2023-04-25T11:08:38;5.63;;;1.38;;
20095;SDS011;10207;50.942;6.900;2023-04-25T11:11:10;8.02;;;1.50;;
20095;SDS011;10207;50.942;6.900;2023-04-25T11:13:36;7.18;;;1.63;;
20095;SDS011;10207;50.942;6.900;2023-04-25T11:16:02;6.15;;;1.17;;
20095;SDS011;10207;50.942;6.900;2023-04-25T11:18:27;7.40;;;1.52;;
20095;SDS011;10207;50.942;6.900;2023-04-25T11:20:54;6.78;;;1.17;;
20095;SDS011;10207;50.942;6.900;2023-04-25T11:23:20;3.22;;;1.25;;
20095;SDS011;10207;50.942;6.900;2023-04-25T11:25:46;2.95;;;0.95;;
20095;SDS011;10207;50.942;6.900;2023-04-25T11:28:12;4.65;;;1.52;;
20095;SDS011;10207;50.942;6.900;2023-04-25T11:30:38;7.10;;;0.90;;
20095;SDS011;10207;50.942;6.900;2023-04-25T11:33:05;4.63;;;1.50;;
20095;SDS011;10207;50.942;6.900;2023-04-25T11:35:31;4.35;;;1.20;;
20095;SDS011;10207;50.942;6.900;2023-04-25T11:37:57;5.38;;;1.88;;
20095;SDS011;10207;50.942;6.900;2023-04-25T11:40:23;3.22;;;0.95;;
20095;SDS011;10207;50.942;6.900;2023-04-25T11:42:49;4.88;;;1.65;;
20095;SDS011;10207;50.942;6.900;2023-04-25T11:45:15;3.50;;;1.33;;
20095;SDS011;10207;50.942;6.900;2023-04-25T11:47:41;4.00;;;0.98;;
20095;SDS011;10207;50.942;6.900;2023-04-25T11:50:07;3.95;;;1.35;;
20095;SDS011;10207;50.942;6.900;2023-04-25T11:52:37;3.58;;;1.33;;
20095;SDS011;10207;50.942;6.900;2023-04-25T11:55:04;5.85;;;1.17;;
20095;SDS011;10207;50.942;6.900;2023-04-25T11:57:31;4.07;;;0.80;;
20095;SDS011;10207;50.942;6.900;2023-04-25T12:00:04;5.28;;;1.08;;
20095;SDS011;10207;50.942;6.900;2023-04-25T12:02:42;4.63;;;1.30;;
20095;SDS011;10207;50.942;6.900;2023-04-25T12:05:09;5.03;;;1.10;;
20095;SDS011;10207;50.942;6.900;2023-04-25T12:07:35;4.90;;;1.20;;
20095;SDS011;10207;50.942;6.900;2023-04-25T12:10:06;5.75;;;1.95;;
20095;SDS011;10207;50.942;6.900;2023-04-25T12:12:34;5.40;;;1.00;;
20095;SDS011;10207;50.942;6.900;2023-04-25T12:17:35;5.93;;;1.20;;
20095;SDS011;10207;50.942;6.900;2023-04-25T12:20:10;5.43;;;1.02;;
20095;SDS011;10207;50.942;6.900;2023-04-25T12:22:36;3.83;;;1.00;;
20095;SDS011;10207;50.942;6.900;2023-04-25T12:25:03;5.93;;;1.00;;
20095;SDS011;10207;50.942;6.900;2023-04-25T12:27:30;3.58;;;1.20;;
20095;SDS011;10207;50.942;6.900;2023-04-25T12:29:57;6.43;;;1.00;;
20095;SDS011;10207;50.942;6.900;2023-04-25T12:32:23;5.22;;;1.13;;
20095;SDS011;10207;50.942;6.900;2023-04-25T12:34:49;2.75;;;1.00;;
20095;SDS011;10207;50.942;6.900;2023-04-25T12:37:15;5.30;;;1.55;;
20095;SDS011;10207;50.942;6.900;2023-04-25T12:39:41;2.05;;;0.65;;
20095;SDS011;10207;50.942;6.900;2023-04-25T12:42:07;3.47;;;1.27;;
20095;SDS011;10207;50.942;6.900;2023-04-25T12:44:39;4.60;;;0.80;;
20095;SDS011;10207;50.942;6.900;2023-04-25T12:47:05;4.95;;;1.30;;
20095;SDS011;10207;50.942;6.900;2023-04-25T12:49:32;5.20;;;1.15;;
20095;SDS011;10207;50.942;6.900;2023-04-25T12:51:58;1.23;;;0.40;;
20095;SDS011;10207;50.942;6.900;2023-04-25T12:54:24;1.48;;;0.60;;
20095;SDS011;10207;50.942;6.900;2023-04-25T12:56:51;5.47;;;1.02;;
20095;SDS011;10207;50.942;6.900;2023-04-25T12:59:17;5.35;;;1.20;;
20095;SDS011;10207;50.942;6.900;2023-04-25T13:01:43;6.10;;;1.33;;
20095;SDS011;10207;50.942;6.900;2023-04-25T13:04:11;2.45;;;1.00;;
20095;SDS011;10207;50.942;6.900;2023-04-25T13:06:36;3.83;;;1.13;;
20095;SDS011;10207;50.942;6.900;2023-04-25T13:09:03;5.88;;;1.17;;
20095;SDS011;10207;50.942;6.900;2023-04-25T13:11:29;4.65;;;1.35;;
20095;SDS011;10207;50.942;6.900;2023-04-25T13:13:55;4.22;;;1.60;;
20095;SDS011;10207;50.942;6.900;2023-04-25T13:16:21;5.53;;;1.38;;
20095;SDS011;10207;50.942;6.900;2023-04-25T13:18:48;2.63;;;0.80;;
20095;SDS011;10207;50.942;6.900;2023-04-25T13:21:14;3.63;;;1.15;;
20095;SDS011;10207;50.942;6.900;2023-04-25T13:23:40;6.88;;;0.98;;
20095;SDS011;10207;50.942;6.900;2023-04-25T13:26:07;3.25;;;0.90;;
20095;SDS011;10207;50.942;6.900;2023-04-25T13:28:33;5.18;;;1.20;;
20095;SDS011;10207;50.942;6.900;2023-04-25T13:30:59;5.10;;;2.13;;
20095;SDS011;10207;50.942;6.900;2023-04-25T13:33:25;1.95;;;1.05;;
20095;SDS011;10207;50.942;6.900;2023-04-25T13:35:51;7.30;;;1.10;;
20095;SDS011;10207;50.942;6.900;2023-04-25T13:38:22;6.43;;;1.33;;
20095;SDS011;10207;50.942;6.900;2023-04-25T13:40:49;1.10;;;0.80;;
20095;SDS011;10207;50.942;6.900;2023-04-25T13:43:15;2.90;;;0.88;;
20095;SDS011;10207;50.942;6.900;2023-04-25T13:45:42;5.22;;;1.00;;
20095;SDS011;10207;50.942;6.900;2023-04-25T13:48:07;1.40;;;0.80;;
20095;SDS011;10207;50.942;6.900;2023-04-25T13:50:33;4.85;;;0.70;;
20095;SDS011;10207;50.942;6.900;2023-04-25T13:52:59;1.30;;;0.60;;
20095;SDS011;10207;50.942;6.900;2023-04-25T13:55:26;3.47;;;1.30;;
20095;SDS011;10207;50.942;6.900;2023-04-25T13:57:51;3.20;;;0.50;;
20095;SDS011;10207;50.942;6.900;2023-04-25T14:00:17;3.75;;;0.60;;
20095;SDS011;10207;50.942;6.900;2023-04-25T14:02:44;2.55;;;0.65;;
20095;SDS011;10207;50.942;6.900;2023-04-25T14:05:10;0.93;;;0.60;;
20095;SDS011;10207;50.942;6.900;2023-04-25T14:07:36;1.45;;;0.98;;
20095;SDS011;10207;50.942;6.900;2023-04-25T14:10:03;1.58;;;0.55;;
20095;SDS011;10207;50.942;6.900;2023-04-25T14:12:30;1.48;;;0.60;;
20095;SDS011;10207;50.942;6.900;2023-04-25T14:14:56;2.67;;;0.75;;
20095;SDS011;10207;50.942;6.900;2023-04-25T14:17:22;3.03;;;0.57;;
20095;SDS011;10207;50.942;6.900;2023-04-25T14:19:49;4.05;;;0.88;;
20095;SDS011;10207;50.942;6.900;2023-04-25T14:22:15;4.25;;;0.65;;
20095;SDS011;10207;50.942;6.900;2023-04-25T14:24:41;2.08;;;0.68;;
20095;SDS011;10207;50.942;6.900;2023-04-25T14:27:07;4.03;;;0.80;;
20095;SDS011;10207;50.942;6.900;2023-04-25T14:29:33;3.25;;;0.60;;
20095;SDS011;10207;50.942;6.900;2023-04-25T14:31:59;1.40;;;0.38;;
20095;SDS011;10207;50.942;6.900;2023-04-25T14:34:26;0.77;;;0.40;;
20095;SDS011;10207;50.942;6.900;2023-04-25T14:36:51;3.22;;;0.70;;
20095;SDS011;10207;50.942;6.900;2023-04-25T14:39:18;3.80;;;0.50;;
20095;SDS011;10207;50.942;6.900;2023-04-25T14:41:44;3.95;;;0.82;;
20095;SDS011;10207;50.942;6.900;2023-04-25T14:44:10;2.17;;;0.38;;
20095;SDS011;10207;50.942;6.900;2023-04-25T14:46:36;4.30;;;0.35;;
20095;SDS011;10207;50.942;6.900;2023-04-25T14:49:02;1.80;;;0.50;;
20095;SDS011;10207;50.942;6.900;2023-04-25T14:51:28;1.98;;;0.82;;
20095;SDS011;10207;50.942;6.900;2023-04-25T14:53:55;3.80;;;1.20;;
20095;SDS011;10207;50.942;6.900;2023-04-25T14:56:21;2.70;;;0.57;;
20095;SDS011;10207;50.942;6.900;2023-04-25T14:58:47;4.80;;;1.27;;
20095;SDS011;10207;50.942;6.900;2023-04-25T15:01:13;4.30;;;0.80;;